createdAt,value
2017-08-15T00:00:18.080Z,73.8
2017-08-15T00:05:05.357Z,74.3
2017-08-15T00:10:07.674Z,74.7
2017-08-15T00:15:03.467Z,74.8
2017-08-15T00:20:05.844Z,75
2017-08-15T00:25:07.681Z,75.4
2017-08-15T00:30:06.133Z,75.5
2017-08-15T00:35:02.913Z,75.4
2017-08-15T00:40:18.344Z,75.6
2017-08-15T00:45:10.711Z,75.6
2017-08-15T00:50:03.460Z,75.6
2017-08-15T00:55:08.279Z,75.9
2017-08-15T01:00:08.071Z,76.2
2017-08-15T01:05:18.330Z,76.3
2017-08-15T01:10:05.061Z,76.6
2017-08-15T01:15:05.353Z,76.7
2017-08-15T01:20:05.743Z,76.6
2017-08-15T01:25:03.503Z,76.6
2017-08-15T01:30:05.777Z,77.2
2017-08-15T01:35:18.710Z,77
2017-08-15T01:40:02.912Z,77
2017-08-15T01:45:10.287Z,77.3
2017-08-15T01:50:03.021Z,77.3
2017-08-15T01:55:08.283Z,77.6
2017-08-15T02:00:08.107Z,77.6
2017-08-15T02:05:12.962Z,77.4
2017-08-15T02:10:03.206Z,77.5
2017-08-15T02:15:02.953Z,77.9
2017-08-15T02:20:02.805Z,77.9
2017-08-15T02:25:07.634Z,77.9
2017-08-15T02:30:05.873Z,77.9
2017-08-15T02:35:05.165Z,77.8
2017-08-15T02:40:03.417Z,77.8
2017-08-15T02:45:03.188Z,77.7
2017-08-15T02:50:02.980Z,77.7
2017-08-15T02:55:22.962Z,78
2017-08-15T03:00:02.697Z,78
2017-08-15T03:05:08.533Z,78.1
2017-08-15T03:10:02.928Z,78.1
2017-08-15T03:15:15.354Z,78.4
2017-08-15T03:20:03.205Z,91.1
2017-08-15T03:25:02.965Z,78.5
2017-08-15T03:30:10.331Z,78.7
2017-08-15T03:35:08.144Z,78.9
2017-08-15T03:40:05.871Z,79
2017-08-15T03:45:02.589Z,79.1
2017-08-15T03:50:05.878Z,79.1
2017-08-15T03:55:05.132Z,79.1
2017-08-15T04:00:05.432Z,79.5
2017-08-15T04:05:03.176Z,79.5
2017-08-15T04:10:05.980Z,79.5
2017-08-15T04:15:15.393Z,79.5
2017-08-15T04:20:03.229Z,79.5
2017-08-15T04:25:05.512Z,79.5
2017-08-15T04:30:08.318Z,79.3
2017-08-15T04:35:05.603Z,79.5
2017-08-15T04:40:02.819Z,79.5
2017-08-15T04:45:07.651Z,79.6
2017-08-15T04:50:08.444Z,79.5
2017-08-15T04:55:08.246Z,79.5
2017-08-15T05:00:03.023Z,79.5
2017-08-15T05:05:05.316Z,79.5
2017-08-15T05:10:05.107Z,79.7
2017-08-15T05:15:18.407Z,79.9
2017-08-15T05:20:02.530Z,79.9
2017-08-15T05:25:07.684Z,79.6
2017-08-15T05:30:02.742Z,79.6
2017-08-15T05:35:05.382Z,79.6
2017-08-15T05:40:08.045Z,79.7
2017-08-15T05:45:18.015Z,79.2
2017-08-15T05:50:02.763Z,79.1
2017-08-15T05:55:06.063Z,78.8
2017-08-15T06:00:12.974Z,78.5
2017-08-15T06:05:05.345Z,78.3
2017-08-15T06:10:02.597Z,78.3
2017-08-15T06:15:08.429Z,77.7
2017-08-15T06:20:05.811Z,77.3
2017-08-15T06:25:02.545Z,77.3
2017-08-15T06:30:05.541Z,76.5
2017-08-15T06:35:08.369Z,76.4
2017-08-15T06:40:02.624Z,76.4
2017-08-15T06:45:10.979Z,74.9
2017-08-15T06:50:05.278Z,74.1
2017-08-15T06:55:35.956Z,73.1
2017-08-15T07:00:02.721Z,73
2017-08-15T07:05:06.026Z,72.8
2017-08-15T07:10:03.263Z,72.8
2017-08-15T07:15:05.580Z,72.6
2017-08-15T07:20:03.390Z,72.6
2017-08-15T07:25:05.709Z,71.9
2017-08-15T07:30:06.038Z,71.4
2017-08-15T07:35:02.766Z,71.2
2017-08-15T07:40:08.060Z,70.9
2017-08-15T07:45:05.354Z,70.7
2017-08-15T07:50:05.668Z,70.3
2017-08-15T07:55:13.587Z,69.6
2017-08-15T08:00:05.832Z,68.7
2017-08-15T08:05:05.147Z,68.6
2017-08-15T08:10:10.978Z,68.5
2017-08-15T08:15:02.696Z,68.5
2017-08-15T08:20:02.981Z,68.9
2017-08-15T08:25:02.725Z,68.6
2017-08-15T08:30:03.509Z,68.2
2017-08-15T08:35:03.260Z,68.3
2017-08-15T08:40:11.124Z,67.6
2017-08-15T08:45:13.004Z,66.2
2017-08-15T08:50:05.267Z,66
2017-08-15T08:55:10.604Z,65.7
2017-08-15T09:00:08.438Z,65.4
2017-08-15T09:10:03.303Z,64.8
2017-08-15T09:15:03.050Z,65.1
2017-08-15T09:20:02.879Z,63.9
2017-08-15T09:25:02.637Z,64.3
2017-08-15T09:30:08.446Z,61.8
2017-08-15T09:35:18.406Z,61.7
2017-08-15T09:40:05.142Z,61.4
2017-08-15T09:45:20.629Z,61.5
2017-08-15T09:50:03.343Z,61.6
2017-08-15T09:55:03.128Z,61.4
2017-08-15T10:00:05.416Z,60.9
2017-08-15T10:05:06.045Z,60.8
2017-08-15T10:10:08.342Z,59.9
2017-08-15T10:15:03.380Z,59.8
2017-08-15T10:20:03.237Z,60.2
2017-08-15T10:25:05.537Z,59.3
2017-08-15T10:30:23.534Z,59.4
2017-08-15T10:35:10.847Z,58.7
2017-08-15T10:40:03.098Z,58.7
2017-08-15T10:45:05.405Z,57.8
2017-08-15T10:50:03.143Z,57.8
2017-08-15T10:55:05.433Z,57.5
2017-08-15T11:00:08.273Z,57.3
2017-08-15T11:05:03.046Z,57.4
2017-08-15T11:10:05.856Z,56.7
2017-08-15T11:15:02.590Z,56.7
2017-08-15T11:20:03.447Z,55.8
2017-08-15T11:25:03.183Z,53.7
2017-08-15T11:30:05.465Z,53.1
2017-08-15T11:35:03.211Z,53.1
2017-08-15T11:40:03.490Z,53.4
2017-08-15T11:45:03.215Z,53.2
2017-08-15T11:50:02.988Z,52.9
2017-08-15T11:55:10.348Z,51.5
2017-08-15T12:00:05.657Z,51.7
2017-08-15T12:05:03.418Z,51.6
2017-08-15T12:10:07.810Z,51.7
2017-08-15T12:15:07.657Z,49.1
2017-08-15T12:20:06.033Z,50
2017-08-15T12:25:02.778Z,50
2017-08-15T12:30:08.630Z,47.1
2017-08-15T12:35:08.422Z,50.1
2017-08-15T12:40:02.623Z,50.2
2017-08-15T12:45:10.992Z,48.3
2017-08-15T12:50:05.301Z,47.2
2017-08-15T12:55:10.686Z,48.6
2017-08-15T13:00:11.079Z,48
2017-08-15T13:05:02.825Z,48
2017-08-15T13:10:08.131Z,46.2
2017-08-15T13:15:02.843Z,46.1
2017-08-15T13:20:15.298Z,45.8
2017-08-15T13:25:28.382Z,45.1
2017-08-15T13:30:03.491Z,45
2017-08-15T13:35:08.361Z,40.5
2017-08-15T13:40:20.339Z,35.8
2017-08-15T13:45:05.601Z,37.6
2017-08-15T13:50:06.016Z,35.2
2017-08-15T13:55:05.329Z,36.1
2017-08-15T14:00:05.648Z,35.7
2017-08-15T14:05:05.941Z,34.4
2017-08-15T14:10:10.754Z,33.9
2017-08-15T14:15:06.051Z,33.9
2017-08-15T14:20:13.013Z,32.6
2017-08-15T14:25:05.286Z,33.5
2017-08-15T14:30:05.651Z,33.8
2017-08-15T14:35:03.402Z,33.9
2017-08-15T14:40:05.181Z,39.4
2017-08-15T14:45:02.883Z,39.5
2017-08-15T14:50:07.702Z,41.1
2017-08-15T14:55:05.984Z,41.5
2017-08-15T15:00:05.338Z,42.3
2017-08-15T15:05:03.081Z,42.2
2017-08-15T15:10:05.874Z,42.8
2017-08-15T15:15:02.598Z,42.7
2017-08-15T15:20:03.430Z,42.4
2017-08-15T15:25:05.728Z,41.2
2017-08-15T15:30:13.627Z,42
2017-08-15T15:35:10.977Z,39.8
2017-08-15T15:40:05.799Z,40.6
2017-08-15T15:45:22.824Z,41.3
2017-08-15T15:50:07.636Z,41.6
2017-08-15T15:55:03.393Z,41.6
2017-08-15T16:00:08.223Z,43.3
2017-08-15T16:05:02.978Z,43.4
2017-08-15T16:10:08.325Z,42.8
2017-08-15T16:15:05.587Z,43.3
2017-08-15T16:20:03.411Z,43.1
2017-08-15T16:25:05.765Z,44.3
2017-08-15T16:30:10.342Z,45.1
2017-08-15T16:35:05.605Z,45.5
2017-08-15T16:40:07.921Z,45.3
2017-08-15T16:45:07.713Z,45.5
2017-08-15T16:50:03.471Z,45.5
2017-08-15T16:55:03.225Z,46.2
2017-08-15T17:00:08.036Z,46.3
2017-08-15T17:05:07.853Z,46.6
2017-08-15T17:10:03.109Z,46.6
2017-08-15T17:15:25.622Z,47.3
2017-08-15T17:20:03.415Z,47.4
2017-08-15T17:25:03.204Z,48.1
2017-08-15T17:30:05.508Z,48.9
2017-08-15T17:35:05.820Z,49.1
2017-08-15T17:40:05.646Z,49.5
2017-08-15T17:45:08.487Z,49.8
2017-08-15T17:50:05.803Z,50.2
2017-08-15T17:55:03.559Z,50.2
2017-08-15T18:00:03.342Z,50.7
2017-08-15T18:05:10.685Z,53.3
2017-08-15T18:10:05.450Z,52.8
2017-08-15T18:15:05.750Z,52.9
2017-08-15T18:20:02.547Z,52.9
2017-08-15T18:25:13.440Z,53.5
2017-08-15T18:30:15.817Z,53.5
2017-08-15T18:35:02.576Z,53.5
2017-08-15T18:40:05.336Z,56.7
2017-08-15T18:45:03.121Z,56.7
2017-08-15T18:50:02.907Z,56.6
2017-08-15T18:55:05.209Z,57.3
2017-08-15T19:00:10.556Z,57.4
2017-08-15T19:05:03.327Z,57.5
2017-08-15T19:10:06.036Z,57.9
2017-08-15T19:15:10.406Z,58.6
2017-08-15T19:20:10.903Z,59.3
2017-08-15T19:25:05.184Z,59.2
2017-08-15T19:30:02.961Z,59.2
2017-08-15T19:35:07.816Z,61.5
2017-08-15T19:40:05.632Z,61.9
2017-08-15T19:45:10.987Z,61.4
2017-08-15T19:50:10.338Z,62.5
2017-08-15T19:55:10.719Z,61.5
2017-08-15T20:00:36.370Z,61.9
2017-08-15T20:05:10.711Z,63.1
2017-08-15T20:10:08.039Z,62.7
2017-08-15T20:15:05.299Z,63.1
2017-08-15T20:20:05.671Z,63.9
2017-08-15T20:25:11.025Z,63.9
2017-08-15T20:30:07.847Z,64.5
2017-08-15T20:35:05.180Z,64.3
2017-08-15T20:40:05.950Z,64.3
2017-08-15T20:45:05.246Z,64.8
2017-08-15T20:50:03.022Z,64.8
2017-08-15T20:55:05.329Z,66.3
2017-08-15T21:00:05.640Z,66.4
2017-08-15T21:05:10.994Z,66.2
2017-08-15T21:10:05.743Z,67.3
2017-08-15T21:15:08.551Z,66.3
2017-08-15T21:20:03.379Z,66.2
2017-08-15T21:25:10.701Z,64.9
2017-08-15T21:30:13.568Z,64.6
2017-08-15T21:35:03.286Z,64.7
2017-08-15T21:40:08.594Z,65
2017-08-15T21:45:03.373Z,64.9
2017-08-15T21:50:10.732Z,65.7
2017-08-15T21:55:03.465Z,65.8
2017-08-15T22:00:05.786Z,64.3
2017-08-15T22:05:08.628Z,65
2017-08-15T22:10:05.416Z,64.6
2017-08-15T22:15:26.002Z,65
2017-08-15T22:20:02.802Z,65.1
2017-08-15T22:25:10.154Z,65.2
2017-08-15T22:30:07.940Z,65.8
2017-08-15T22:35:07.774Z,66.8
2017-08-15T22:40:05.528Z,67
2017-08-15T22:45:03.302Z,66.9
2017-08-15T22:50:10.658Z,67.8
2017-08-15T22:55:05.991Z,68.1
2017-08-15T23:00:05.309Z,67.9
2017-08-15T23:05:18.278Z,68.1
2017-08-15T23:10:06.141Z,68.2
2017-08-15T23:15:25.651Z,69.1
2017-08-15T23:20:06.005Z,69.6
2017-08-15T23:25:22.987Z,69.5
2017-08-15T23:30:07.794Z,70.1
2017-08-15T23:35:05.111Z,68.1
2017-08-15T23:40:05.920Z,67.3
2017-08-15T23:45:02.701Z,67.3
2017-08-15T23:50:03.472Z,66.8
2017-08-15T23:55:03.196Z,66.6
